createdAt,value
2023-12-05T00:01:10.496Z,100536.59
2023-12-05T00:04:13.051Z,100533.91
2023-12-05T00:07:15.530Z,100536.00
2023-12-05T00:10:17.981Z,100526.84
2023-12-05T00:13:20.421Z,100523.03
2023-12-05T00:16:22.848Z,100520.03
2023-12-05T00:19:25.256Z,100532.41
2023-12-05T00:22:28.603Z,100520.00
2023-12-05T00:25:30.984Z,100514.44
2023-12-05T00:28:33.417Z,100516.31
2023-12-05T00:31:35.777Z,100512.38
2023-12-05T00:34:38.188Z,100513.41
2023-12-05T00:37:40.621Z,100510.88
2023-12-05T00:40:43.027Z,100509.34
2023-12-05T00:43:45.579Z,100502.19
2023-12-05T00:46:47.953Z,100505.66
2023-12-05T00:49:50.348Z,100498.59
2023-12-05T00:52:52.738Z,100495.00
2023-12-05T00:55:55.157Z,100502.16
2023-12-05T00:58:57.499Z,100505.75
2023-12-05T01:02:00.524Z,100511.31
2023-12-05T01:05:04.029Z,100499.84
2023-12-05T01:08:06.656Z,100498.25
2023-12-05T01:11:11.481Z,100496.16
2023-12-05T01:14:13.923Z,100501.59
2023-12-05T01:17:19.072Z,100517.00
2023-12-05T01:20:21.797Z,100519.09
2023-12-05T01:23:24.432Z,100520.59
2023-12-05T01:26:26.888Z,100515.03
2023-12-05T01:29:29.654Z,100510.75
2023-12-05T01:32:32.145Z,100511.22
2023-12-05T01:35:34.638Z,100514.47
2023-12-05T01:38:37.039Z,100515.94
2023-12-05T01:41:39.475Z,100517.03
2023-12-05T01:44:41.849Z,100511.91
2023-12-05T01:47:44.384Z,100517.25
2023-12-05T01:50:46.809Z,100507.41
2023-12-05T01:53:49.737Z,100497.06
2023-12-05T01:56:52.182Z,100499.03
2023-12-05T01:59:54.548Z,100484.97
2023-12-05T02:02:58.110Z,100471.41
2023-12-05T02:06:00.522Z,100468.38
2023-12-05T02:09:04.275Z,100466.44
2023-12-05T02:12:07.069Z,100467.34
2023-12-05T02:15:09.560Z,100460.38
2023-12-05T02:18:17.828Z,100454.72
2023-12-05T02:21:22.024Z,100456.09
2023-12-05T02:24:48.023Z,100443.47
2023-12-05T02:27:50.489Z,100445.34
2023-12-05T02:30:53.818Z,100435.94
2023-12-05T02:33:56.400Z,100441.88
2023-12-05T02:37:05.971Z,100434.81
2023-12-05T02:40:11.923Z,100424.94
2023-12-05T02:43:17.317Z,100423.19
2023-12-05T02:46:19.701Z,100416.13
2023-12-05T02:49:22.234Z,100419.53
2023-12-05T02:52:24.677Z,100420.34
2023-12-05T02:55:27.027Z,100419.06
2023-12-05T02:58:29.974Z,100418.84
2023-12-05T03:01:38.379Z,100410.72
2023-12-05T03:04:40.981Z,100402.13
2023-12-05T03:07:43.468Z,100406.41
2023-12-05T03:10:54.873Z,100404.69
2023-12-05T03:14:03.851Z,100398.44
2023-12-05T03:17:06.345Z,100399.44
2023-12-05T03:20:09.135Z,100398.41
2023-12-05T03:23:11.505Z,100393.84
2023-12-05T03:26:20.685Z,100398.84
2023-12-05T03:29:23.137Z,100400.72
2023-12-05T03:32:25.570Z,100392.13
2023-12-05T03:35:27.962Z,100396.19
2023-12-05T03:38:30.339Z,100399.28
2023-12-05T03:41:32.758Z,100394.81
2023-12-05T03:44:35.162Z,100401.19
2023-12-05T03:47:37.616Z,100388.31
2023-12-05T03:50:40.021Z,100383.09
2023-12-05T03:53:42.433Z,100389.69
2023-12-05T03:56:44.849Z,100385.50
2023-12-05T03:59:47.847Z,100383.44
2023-12-05T04:02:50.253Z,100374.72
2023-12-05T04:05:52.680Z,100383.31
2023-12-05T04:08:55.100Z,100356.97
2023-12-05T04:11:59.039Z,100374.47
2023-12-05T04:15:01.481Z,100358.34
2023-12-05T04:18:04.010Z,100343.34
2023-12-05T04:21:06.588Z,100357.75
2023-12-05T04:24:08.944Z,100347.78
2023-12-05T04:27:11.386Z,100353.34
2023-12-05T04:30:13.953Z,100342.06
2023-12-05T04:33:16.697Z,100362.75
2023-12-05T04:36:19.162Z,100368.59
2023-12-05T04:39:21.623Z,100389.81
2023-12-05T04:42:24.048Z,100383.16
2023-12-05T04:45:26.528Z,100382.81
2023-12-05T04:48:29.253Z,100378.41
2023-12-05T04:51:32.346Z,100373.06
2023-12-05T04:54:34.764Z,100377.00
2023-12-05T04:57:37.276Z,100382.19
2023-12-05T05:00:39.890Z,100381.41
2023-12-05T05:03:42.434Z,100381.41
2023-12-05T05:06:45.003Z,100424.13
2023-12-05T05:09:47.476Z,100444.81
2023-12-05T05:12:50.020Z,100449.88
2023-12-05T05:15:52.479Z,100449.31
2023-12-05T05:18:55.046Z,100430.38
2023-12-05T05:21:57.580Z,100413.59
2023-12-05T05:25:00.220Z,100410.16
2023-12-05T05:28:02.934Z,100411.72
2023-12-05T05:31:05.511Z,100418.09
2023-12-05T05:34:07.948Z,100408.56
2023-12-05T05:37:10.303Z,100370.69
2023-12-05T05:40:12.889Z,100345.22
2023-12-05T05:43:15.303Z,100326.34
2023-12-05T05:46:17.698Z,100331.75
2023-12-05T05:49:20.216Z,100331.06
2023-12-05T05:52:22.635Z,100326.78
2023-12-05T05:55:26.248Z,100327.16
2023-12-05T05:58:29.057Z,100325.75
2023-12-05T06:01:31.839Z,100327.97
2023-12-05T06:04:34.391Z,100321.91
2023-12-05T06:07:38.379Z,100336.09
2023-12-05T06:10:41.506Z,100341.38
2023-12-05T06:13:43.889Z,100349.31
2023-12-05T06:16:46.315Z,100354.38
2023-12-05T06:19:48.807Z,100359.84
2023-12-05T06:22:51.266Z,100358.78
2023-12-05T06:25:53.648Z,100359.22
2023-12-05T06:28:56.107Z,100356.41
2023-12-05T06:31:58.506Z,100364.94
2023-12-05T06:35:01.034Z,100364.22
2023-12-05T06:38:03.410Z,100354.50
2023-12-05T06:41:06.281Z,100364.13
2023-12-05T06:44:08.704Z,100374.91
2023-12-05T06:47:11.061Z,100388.56
2023-12-05T06:50:13.503Z,100383.31
2023-12-05T06:53:15.908Z,100380.91
2023-12-05T06:56:19.763Z,100382.38
2023-12-05T06:59:22.990Z,100374.03
2023-12-05T07:02:25.368Z,100368.31
2023-12-05T07:05:27.870Z,100364.81
2023-12-05T07:08:30.292Z,100365.09
2023-12-05T07:11:32.845Z,100363.22
2023-12-05T07:14:38.274Z,100365.38
2023-12-05T07:17:40.791Z,100367.56
2023-12-05T07:20:43.252Z,100361.63
2023-12-05T07:23:52.469Z,100366.09
2023-12-05T07:27:01.340Z,100370.97
2023-12-05T07:30:04.727Z,100376.22
2023-12-05T07:33:07.270Z,100379.72
2023-12-05T07:36:10.347Z,100371.00
2023-12-05T07:39:14.146Z,100365.66
2023-12-05T07:42:16.633Z,100364.22
2023-12-05T07:45:19.006Z,100362.50
2023-12-05T07:48:21.507Z,100366.81
2023-12-05T07:51:24.618Z,100368.47
2023-12-05T07:54:28.082Z,100371.03
2023-12-05T07:57:30.638Z,100366.84
2023-12-05T08:00:33.680Z,100355.56
2023-12-05T08:03:36.308Z,100354.28
2023-12-05T08:06:38.759Z,100360.09
2023-12-05T08:09:41.147Z,100373.41
2023-12-05T08:12:43.649Z,100372.53
2023-12-05T08:15:46.130Z,100361.63
2023-12-05T08:18:48.617Z,100358.94
2023-12-05T08:21:51.015Z,100358.81
2023-12-05T08:24:53.423Z,100358.88
2023-12-05T08:27:55.882Z,100363.03
2023-12-05T08:30:58.307Z,100350.84
2023-12-05T08:34:01.119Z,100347.03
2023-12-05T08:37:04.020Z,100363.13
2023-12-05T08:40:08.204Z,100370.00
2023-12-05T08:43:11.369Z,100366.78
2023-12-05T08:46:14.205Z,100376.19
2023-12-05T08:49:16.658Z,100364.34
2023-12-05T08:52:20.624Z,100370.25
2023-12-05T08:55:23.057Z,100375.25
2023-12-05T08:58:25.941Z,100367.03
2023-12-05T09:01:29.638Z,100374.84
2023-12-05T09:04:32.227Z,100373.09
2023-12-05T09:07:34.930Z,100377.16
2023-12-05T09:10:37.422Z,100380.78
2023-12-05T09:13:40.168Z,100365.72
2023-12-05T09:16:42.656Z,100365.41
2023-12-05T09:19:45.114Z,100363.66
2023-12-05T09:22:47.478Z,100353.81
2023-12-05T09:25:49.914Z,100353.97
2023-12-05T09:28:52.427Z,100362.75
2023-12-05T09:31:54.992Z,100362.75
2023-12-05T09:34:57.374Z,100353.94
2023-12-05T09:37:59.891Z,100347.16
2023-12-05T09:41:02.376Z,100336.09
2023-12-05T09:44:05.007Z,100329.34
2023-12-05T09:47:07.413Z,100342.00
2023-12-05T09:50:10.876Z,100330.00
2023-12-05T09:53:13.322Z,100322.22
2023-12-05T09:56:16.142Z,100312.94
2023-12-05T09:59:18.662Z,100317.53
2023-12-05T10:02:22.305Z,100308.50
2023-12-05T10:05:24.878Z,100300.16
2023-12-05T10:08:27.341Z,100307.00
2023-12-05T10:11:29.752Z,100296.72
2023-12-05T10:14:32.143Z,100292.28
2023-12-05T10:17:35.780Z,100288.66
2023-12-05T10:20:39.919Z,100290.25
2023-12-05T10:23:42.476Z,100279.59
2023-12-05T10:26:46.162Z,100272.97
2023-12-05T10:29:48.568Z,100269.25
2023-12-05T10:32:51.037Z,100259.34
2023-12-05T10:35:53.427Z,100258.59
2023-12-05T10:38:55.829Z,100260.34
2023-12-05T10:41:58.201Z,100250.75
2023-12-05T10:45:05.751Z,100251.84
2023-12-05T10:48:08.293Z,100252.34
2023-12-05T10:51:10.741Z,100251.66
2023-12-05T10:54:14.440Z,100247.28
2023-12-05T10:57:16.817Z,100245.84
2023-12-05T11:00:20.060Z,100247.25
2023-12-05T11:03:22.598Z,100239.47
2023-12-05T11:06:26.882Z,100252.00
2023-12-05T11:09:29.521Z,100245.03
2023-12-05T11:12:32.200Z,100238.50
2023-12-05T11:15:40.542Z,100239.31
2023-12-05T11:18:44.904Z,100239.81
2023-12-05T11:22:09.623Z,100232.25
2023-12-05T11:25:33.395Z,100221.97
2023-12-05T11:29:03.418Z,100221.69
2023-12-05T11:32:26.536Z,100231.00
2023-12-05T11:35:59.378Z,100225.91
2023-12-05T11:39:01.872Z,100224.09
2023-12-05T11:42:15.641Z,100229.88
2023-12-05T11:45:22.433Z,100221.22
2023-12-05T11:48:27.196Z,100224.75
2023-12-05T11:51:32.984Z,100223.59
2023-12-05T11:54:35.412Z,100222.63
2023-12-05T11:57:37.889Z,100218.47
2023-12-05T12:00:40.344Z,100226.94
2023-12-05T12:03:55.559Z,100228.78
2023-12-05T12:06:59.397Z,100230.38
2023-12-05T12:10:03.069Z,100240.97
2023-12-05T12:13:05.560Z,100226.16
2023-12-05T12:16:08.342Z,100229.84
2023-12-05T12:19:13.420Z,100230.88
2023-12-05T12:22:16.258Z,100227.06
2023-12-05T12:25:20.434Z,100217.78
2023-12-05T12:28:32.189Z,100216.94
2023-12-05T12:31:34.700Z,100211.59
2023-12-05T12:37:46.132Z,100207.44
2023-12-05T12:40:54.830Z,100203.84
2023-12-05T12:43:57.267Z,100205.81
2023-12-05T12:47:00.949Z,100207.22
2023-12-05T12:50:03.943Z,100205.34
2023-12-05T12:53:06.372Z,100211.09
2023-12-05T12:56:11.159Z,100205.13
2023-12-05T12:59:14.258Z,100209.50
2023-12-05T13:02:17.064Z,100196.03
2023-12-05T13:05:19.647Z,100193.63
2023-12-05T13:08:22.136Z,100200.81
2023-12-05T13:11:24.537Z,100205.06
2023-12-05T13:14:27.060Z,100200.31
2023-12-05T13:17:30.841Z,100191.88
2023-12-05T13:20:33.289Z,100198.53
2023-12-05T13:23:35.698Z,100206.13
2023-12-05T13:26:38.825Z,100196.91
2023-12-05T13:29:41.269Z,100183.19
2023-12-05T13:32:44.621Z,100184.97
2023-12-05T13:35:47.108Z,100188.31
2023-12-05T13:38:50.234Z,100201.47
2023-12-05T13:41:52.644Z,100198.41
2023-12-05T13:44:55.037Z,100182.63
2023-12-05T13:47:57.595Z,100181.03
2023-12-05T13:51:00.138Z,100172.44
2023-12-05T13:54:02.728Z,100175.09
2023-12-05T13:57:06.320Z,100184.53
2023-12-05T14:00:09.517Z,100181.78
2023-12-05T14:03:11.942Z,100184.44
2023-12-05T14:06:14.462Z,100191.00
2023-12-05T14:09:16.958Z,100194.09
2023-12-05T14:12:19.564Z,100189.09
2023-12-05T14:15:25.051Z,100187.44
2023-12-05T14:18:28.577Z,100185.16
2023-12-05T14:21:31.506Z,100181.78
2023-12-05T14:24:34.328Z,100187.88
2023-12-05T14:27:38.575Z,100179.38
2023-12-05T14:30:41.961Z,100181.00
2023-12-05T14:33:45.030Z,100171.75
2023-12-05T14:36:47.707Z,100177.38
2023-12-05T14:39:52.139Z,100176.22
2023-12-05T14:42:55.482Z,100184.72
2023-12-05T14:45:57.962Z,100181.00
2023-12-05T14:49:00.576Z,100192.34
2023-12-05T14:52:04.638Z,100183.34
2023-12-05T14:55:07.323Z,100171.44
2023-12-05T14:58:09.887Z,100181.50
2023-12-05T15:01:12.355Z,100177.97
2023-12-05T15:04:14.933Z,100184.34
2023-12-05T15:07:17.610Z,100164.13
2023-12-05T15:10:20.249Z,100171.00
2023-12-05T15:13:22.715Z,100159.00
2023-12-05T15:16:25.265Z,100160.97
2023-12-05T15:19:29.574Z,100153.63
2023-12-05T15:22:32.024Z,100150.28
2023-12-05T15:25:35.370Z,100152.19
2023-12-05T15:28:39.400Z,100143.31
2023-12-05T15:31:43.163Z,100135.75
2023-12-05T15:34:45.581Z,100138.56
2023-12-05T15:37:47.968Z,100134.81
2023-12-05T15:40:50.435Z,100131.19
2023-12-05T15:43:52.863Z,100128.66
2023-12-05T15:46:55.501Z,100131.53
2023-12-05T15:49:59.045Z,100144.69
2023-12-05T15:53:04.345Z,100141.91
2023-12-05T15:56:07.217Z,100137.31
2023-12-05T15:59:10.776Z,100137.25
2023-12-05T16:02:13.219Z,100139.66
2023-12-05T16:05:16.191Z,100138.75
2023-12-05T16:08:18.664Z,100144.06
2023-12-05T16:11:21.156Z,100155.47
2023-12-05T16:14:23.549Z,100152.91
2023-12-05T16:17:25.944Z,100153.22
2023-12-05T16:20:28.339Z,100137.97
2023-12-05T16:23:31.155Z,100143.47
2023-12-05T16:26:39.543Z,100140.63
2023-12-05T16:29:42.050Z,100138.16
2023-12-05T16:32:44.490Z,100140.75
2023-12-05T16:35:46.914Z,100142.38
2023-12-05T16:38:49.382Z,100144.72
2023-12-05T16:41:51.818Z,100150.94
2023-12-05T16:44:54.299Z,100149.25
2023-12-05T16:47:59.701Z,100162.88
2023-12-05T16:51:02.621Z,100164.41
2023-12-05T16:54:05.210Z,100163.03
2023-12-05T16:57:07.594Z,100167.31
2023-12-05T17:00:10.331Z,100166.53
2023-12-05T17:03:12.797Z,100173.22
2023-12-05T17:06:15.275Z,100171.22
2023-12-05T17:09:19.778Z,100166.38
2023-12-05T17:12:22.372Z,100166.03
2023-12-05T17:15:24.732Z,100148.53
2023-12-05T17:18:27.228Z,100140.63
2023-12-05T17:21:29.736Z,100149.50
2023-12-05T17:24:32.221Z,100142.97
2023-12-05T17:27:34.688Z,100143.91
2023-12-05T17:30:37.218Z,100143.41
2023-12-05T17:33:39.809Z,100134.78
2023-12-05T17:36:42.439Z,100146.78
2023-12-05T17:39:44.898Z,100139.09
2023-12-05T17:42:47.460Z,100126.78
2023-12-05T17:45:49.921Z,100135.34
2023-12-05T17:48:52.480Z,100134.47
2023-12-05T17:51:54.983Z,100135.88
2023-12-05T17:54:57.466Z,100139.59
2023-12-05T17:58:00.110Z,100137.34
2023-12-05T18:01:02.771Z,100134.22
2023-12-05T18:04:05.687Z,100135.72
2023-12-05T18:07:50.719Z,100138.25
2023-12-05T18:10:30.698Z,100132.63
2023-12-05T18:13:34.084Z,100125.25
2023-12-05T18:16:36.824Z,100119.44
2023-12-05T18:19:44.930Z,100111.88
2023-12-05T18:22:48.978Z,100110.41
2023-12-05T18:25:51.371Z,100105.22
2023-12-05T18:28:54.367Z,100112.69
2023-12-05T18:31:56.795Z,100117.16
2023-12-05T18:34:59.269Z,100116.59
2023-12-05T18:38:01.697Z,100126.50
2023-12-05T18:41:04.285Z,100135.50
2023-12-05T18:44:06.719Z,100131.75
2023-12-05T18:47:09.115Z,100132.19
2023-12-05T18:50:11.596Z,100137.16
2023-12-05T18:53:14.153Z,100123.75
2023-12-05T18:56:16.635Z,100127.66
2023-12-05T18:59:19.449Z,100131.63
2023-12-05T19:02:22.944Z,100122.53
2023-12-05T19:05:25.445Z,100129.72
2023-12-05T19:08:27.814Z,100129.50
2023-12-05T19:11:30.244Z,100134.59
2023-12-05T19:14:33.807Z,100133.53
2023-12-05T19:17:36.330Z,100136.81
2023-12-05T19:20:38.715Z,100106.94
2023-12-05T19:23:41.150Z,100137.25
2023-12-05T19:26:43.621Z,100139.09
2023-12-05T19:29:45.985Z,100145.38
2023-12-05T19:32:48.617Z,100144.34
2023-12-05T19:35:51.099Z,100140.38
2023-12-05T19:38:53.885Z,100141.34
2023-12-05T19:41:56.354Z,100140.22
2023-12-05T19:44:59.148Z,100134.41
2023-12-05T19:48:01.598Z,100132.03
2023-12-05T19:51:04.066Z,100132.84
2023-12-05T19:54:07.164Z,100141.28
2023-12-05T19:57:09.562Z,100132.19
2023-12-05T20:00:12.373Z,100143.53
2023-12-05T20:03:16.049Z,100130.56
2023-12-05T20:06:19.226Z,100122.28
2023-12-05T20:09:21.946Z,100107.31
2023-12-05T20:12:24.552Z,100120.69
2023-12-05T20:15:27.022Z,100116.94
2023-12-05T20:18:29.545Z,100115.50
2023-12-05T20:21:32.057Z,100115.66
2023-12-05T20:24:34.725Z,100114.25
2023-12-05T20:27:37.243Z,100113.28
2023-12-05T20:30:39.890Z,100114.78
2023-12-05T20:33:42.448Z,100114.38
2023-12-05T20:36:44.940Z,100099.53
2023-12-05T20:39:47.400Z,100097.34
2023-12-05T20:42:49.883Z,100088.41
2023-12-05T20:45:52.371Z,100099.31
2023-12-05T20:48:54.792Z,100096.22
2023-12-05T20:51:57.291Z,100073.16
2023-12-05T20:54:59.757Z,100066.09
2023-12-05T20:58:02.173Z,100063.94
2023-12-05T21:01:06.240Z,100082.91
2023-12-05T21:04:08.800Z,100070.97
2023-12-05T21:07:13.342Z,100073.09
2023-12-05T21:10:15.899Z,100080.84
2023-12-05T21:13:18.354Z,100078.22
2023-12-05T21:16:20.764Z,100090.66
2023-12-05T21:19:23.179Z,100085.38
2023-12-05T21:22:26.313Z,100093.31
2023-12-05T21:25:28.924Z,100085.47
2023-12-05T21:28:31.744Z,100092.56
2023-12-05T21:31:34.164Z,100095.28
2023-12-05T21:34:41.184Z,100087.66
2023-12-05T21:37:45.000Z,100083.38
2023-12-05T21:40:47.595Z,100071.19
2023-12-05T21:43:49.988Z,100074.63
2023-12-05T21:46:52.415Z,100070.44
2023-12-05T21:49:54.891Z,100080.09
2023-12-05T21:52:57.345Z,100089.72
2023-12-05T21:55:59.752Z,100085.75
2023-12-05T21:59:02.211Z,100080.47
2023-12-05T22:02:04.736Z,100093.38
2023-12-05T22:05:07.491Z,100090.41
2023-12-05T22:08:09.952Z,100091.38
2023-12-05T22:11:13.283Z,100070.25
2023-12-05T22:14:15.783Z,100071.25
2023-12-05T22:17:18.421Z,100071.41
2023-12-05T22:20:21.045Z,100063.97
2023-12-05T22:23:25.677Z,100061.31
2023-12-05T22:26:29.076Z,100083.63
2023-12-05T22:29:31.532Z,100066.13
2023-12-05T22:32:33.964Z,100073.75
2023-12-05T22:35:38.965Z,100085.69
2023-12-05T22:38:41.316Z,100080.84
2023-12-05T22:41:46.616Z,100085.75
2023-12-05T22:44:49.130Z,100076.66
2023-12-05T22:47:51.570Z,100069.56
2023-12-05T22:50:53.982Z,100062.47
2023-12-05T22:53:56.800Z,100055.22
2023-12-05T22:56:59.298Z,100060.72
2023-12-05T23:00:02.774Z,100041.03
2023-12-05T23:03:05.319Z,100042.84
2023-12-05T23:06:08.078Z,100047.34
2023-12-05T23:09:10.687Z,100037.88
2023-12-05T23:12:13.029Z,100031.91
2023-12-05T23:15:15.405Z,100039.06
2023-12-05T23:18:17.991Z,100040.50
2023-12-05T23:21:20.345Z,100033.06
2023-12-05T23:24:22.881Z,100038.53
2023-12-05T23:27:25.487Z,100040.00
2023-12-05T23:30:28.707Z,100041.09
2023-12-05T23:33:31.341Z,100031.50
2023-12-05T23:36:33.825Z,100025.28
2023-12-05T23:39:36.415Z,100031.00
2023-12-05T23:42:38.838Z,100028.56
2023-12-05T23:45:41.288Z,100028.41
2023-12-05T23:48:44.528Z,100025.03
2023-12-05T23:51:47.068Z,100013.13
2023-12-05T23:54:49.965Z,100009.91
2023-12-05T23:57:52.407Z,100000.03
